メインページ
METAR-TAF:

METAR-TAF

空港 :

ヤズド, イラン

緯度: 31-54N, 経度: 054-24E, 海抜: 1238m

現時点の気象観測

当レポートは49分前の20:00(UTC)に作成
南西の風 4kt
気温 31°C
湿度 7%
気圧 1008 hPa
視程10km以上
1,500メートル以下は雲なし、積乱雲なし

METAR: OIYY 212000Z 23004KT CAVOK 31/M08 Q1008

時間: 01:19 (20:49 UTC)


TAF: 見つかりません

4,000以上の空港の気象観測と天気予報(METAR報とTAF報)

利用可能な観測所は地図上に黄色い丸と赤い丸で示す。

丸の上にカーソルを重ねると観測所名を参照できる。

次にクリックすると気象観測と天気予報を参照できる。

マップの切り替え:黒色「×」印の緑ボタンをクリックして拡大、「-」印の緑ボタンをクリックして縮小、緑色の三角印をクリックして隣りの地図に切り替え


METAR-TAF: